createdAt,value
2019-02-25T00:00:32.578Z,3.70
2019-02-25T00:03:02.797Z,3.90
2019-02-25T00:05:36.811Z,3.90
2019-02-25T00:08:07.646Z,4.00
2019-02-25T00:10:38.383Z,4.00
2019-02-25T00:13:09.847Z,3.60
2019-02-25T00:15:40.471Z,3.70
2019-02-25T00:18:11.492Z,3.70
2019-02-25T00:20:42.549Z,3.70
2019-02-25T00:23:13.183Z,3.50
2019-02-25T00:25:44.226Z,3.30
2019-02-25T00:28:17.723Z,3.20
2019-02-25T00:30:49.047Z,3.50
2019-02-25T00:33:21.374Z,3.40
2019-02-25T00:35:51.937Z,3.50
2019-02-25T00:38:22.894Z,3.40
2019-02-25T00:40:56.406Z,3.80
2019-02-25T00:43:26.908Z,3.80
2019-02-25T00:45:57.537Z,3.80
2019-02-25T00:48:30.519Z,3.70
2019-02-25T00:51:04.221Z,3.50
2019-02-25T00:53:34.929Z,3.50
2019-02-25T00:56:05.228Z,3.40
2019-02-25T00:58:35.248Z,3.50
2019-02-25T01:01:08.024Z,3.50
2019-02-25T01:03:38.461Z,3.70
2019-02-25T01:06:15.487Z,3.30
2019-02-25T01:08:48.349Z,3.20
2019-02-25T01:11:25.410Z,3.20
2019-02-25T01:14:01.460Z,3.30
2019-02-25T01:16:32.828Z,3.50
2019-02-25T01:19:04.988Z,3.40
2019-02-25T01:21:35.514Z,3.10
2019-02-25T01:24:06.808Z,2.90
2019-02-25T01:26:37.602Z,2.90
2019-02-25T01:29:08.436Z,2.90
2019-02-25T01:31:41.527Z,2.90
2019-02-25T01:34:14.661Z,3.00
2019-02-25T01:36:45.563Z,3.00
2019-02-25T01:39:16.402Z,3.30
2019-02-25T01:41:47.233Z,3.40
2019-02-25T01:44:17.723Z,3.00
2019-02-25T01:46:48.127Z,3.00
2019-02-25T01:49:26.810Z,3.30
2019-02-25T01:51:59.080Z,3.40
2019-02-25T01:54:29.610Z,3.50
2019-02-25T01:57:00.378Z,3.60
2019-02-25T01:59:31.346Z,3.60
2019-02-25T02:02:07.207Z,3.70
2019-02-25T02:04:38.894Z,3.80
2019-02-25T02:07:19.262Z,3.70
2019-02-25T02:09:51.132Z,3.70
2019-02-25T02:12:28.690Z,3.80
2019-02-25T02:14:59.849Z,3.80
2019-02-25T02:17:33.020Z,3.70
2019-02-25T02:20:04.305Z,3.80
2019-02-25T02:22:38.073Z,3.80
2019-02-25T02:25:10.089Z,3.70
2019-02-25T02:27:40.500Z,3.50
2019-02-25T02:30:18.013Z,3.20
2019-02-25T02:32:51.904Z,3.30
2019-02-25T02:35:22.213Z,3.40
2019-02-25T02:37:57.982Z,3.30
2019-02-25T02:40:28.820Z,2.80
2019-02-25T02:43:01.176Z,2.70
2019-02-25T02:45:41.448Z,2.80
2019-02-25T02:48:18.740Z,2.80
2019-02-25T02:50:49.711Z,2.70
2019-02-25T02:53:21.744Z,2.90
2019-02-25T02:55:51.785Z,2.70
2019-02-25T02:58:22.394Z,2.60
2019-02-25T03:00:53.648Z,2.70
2019-02-25T03:03:26.936Z,2.70
2019-02-25T03:06:01.360Z,2.70
2019-02-25T03:08:29.837Z,2.70
2019-02-25T03:11:03.136Z,2.70
2019-02-25T03:13:33.458Z,2.70
2019-02-25T03:16:07.154Z,3.00
2019-02-25T03:18:40.054Z,3.10
2019-02-25T03:21:12.015Z,3.20
2019-02-25T03:23:44.669Z,3.40
2019-02-25T03:26:15.500Z,3.20
2019-02-25T03:28:49.029Z,3.10
2019-02-25T03:31:23.583Z,2.90
2019-02-25T03:33:54.177Z,2.90
2019-02-25T03:36:27.669Z,3.00
2019-02-25T03:38:57.978Z,3.10
2019-02-25T03:41:32.103Z,3.00
2019-02-25T03:44:02.418Z,2.90
2019-02-25T03:46:33.156Z,3.00
2019-02-25T03:49:03.821Z,2.90
2019-02-25T03:51:38.461Z,3.00
2019-02-25T03:54:09.486Z,2.90
2019-02-25T03:56:39.064Z,2.60
2019-02-25T03:59:12.996Z,2.20
2019-02-25T04:01:43.387Z,2.00
2019-02-25T04:04:14.064Z,1.90
2019-02-25T04:06:47.201Z,1.80
2019-02-25T04:09:17.580Z,1.90
2019-02-25T04:11:48.226Z,1.90
2019-02-25T04:14:19.153Z,1.80
2019-02-25T04:16:52.862Z,1.70
2019-02-25T04:19:23.121Z,1.70
2019-02-25T04:21:54.844Z,2.10
2019-02-25T04:24:26.708Z,2.00
2019-02-25T04:27:01.227Z,1.90
2019-02-25T04:29:31.827Z,2.30
2019-02-25T04:32:02.382Z,2.30
2019-02-25T04:34:32.939Z,2.20
2019-02-25T04:37:10.547Z,2.30
2019-02-25T04:39:42.479Z,2.20
2019-02-25T04:42:16.591Z,2.00
2019-02-25T04:44:48.056Z,1.90
2019-02-25T04:47:18.789Z,1.80
2019-02-25T04:49:53.305Z,2.10
2019-02-25T04:52:23.855Z,2.20
2019-02-25T04:54:53.954Z,1.90
2019-02-25T04:57:26.193Z,1.60
2019-02-25T04:59:56.550Z,1.70
2019-02-25T05:02:33.119Z,1.80
2019-02-25T05:05:02.521Z,1.90
2019-02-25T05:07:32.645Z,1.70
2019-02-25T05:10:03.611Z,1.40
2019-02-25T05:12:37.146Z,1.60
2019-02-25T05:15:08.105Z,1.40
2019-02-25T05:17:45.996Z,1.20
2019-02-25T05:20:16.457Z,1.30
2019-02-25T05:22:50.289Z,1.30
2019-02-25T05:25:20.900Z,1.40
2019-02-25T05:27:51.445Z,1.50
2019-02-25T05:30:21.779Z,1.50
2019-02-25T05:32:51.427Z,1.40
2019-02-25T05:35:23.635Z,1.60
2019-02-25T05:37:53.643Z,1.50
2019-02-25T05:40:27.399Z,1.40
2019-02-25T05:42:58.036Z,1.40
2019-02-25T05:45:28.530Z,1.20
2019-02-25T05:47:58.569Z,1.10
2019-02-25T05:50:29.269Z,1.20
2019-02-25T05:53:00.800Z,1.30
2019-02-25T05:55:31.990Z,1.50
2019-02-25T05:58:05.052Z,1.60
2019-02-25T06:00:35.719Z,1.70
2019-02-25T06:03:06.126Z,1.70
2019-02-25T06:05:36.485Z,1.70
2019-02-25T06:08:09.497Z,1.70
2019-02-25T06:10:39.783Z,1.40
2019-02-25T06:13:12.873Z,1.30
2019-02-25T06:15:43.083Z,1.20
2019-02-25T06:18:15.454Z,1.20
2019-02-25T06:20:49.873Z,1.00
2019-02-25T06:23:21.929Z,1.00
2019-02-25T06:25:52.266Z,1.00
2019-02-25T06:28:21.780Z,1.10
2019-02-25T06:30:52.704Z,1.10
2019-02-25T06:33:22.341Z,1.20
2019-02-25T06:35:52.564Z,1.30
2019-02-25T06:38:22.327Z,1.50
2019-02-25T06:40:52.561Z,1.50
2019-02-25T06:43:22.272Z,1.60
2019-02-25T06:45:52.121Z,1.60
2019-02-25T06:48:22.010Z,1.70
2019-02-25T06:50:51.608Z,1.70
2019-02-25T06:53:21.742Z,1.80
2019-02-25T06:55:51.483Z,1.80
2019-02-25T06:58:22.983Z,1.90
2019-02-25T07:00:52.517Z,1.70
2019-02-25T07:03:22.083Z,1.60
2019-02-25T07:06:05.943Z,1.40
2019-02-25T07:08:57.747Z,1.30
2019-02-25T07:11:36.747Z,1.30
2019-02-25T07:14:31.162Z,1.30
2019-02-25T07:17:08.042Z,1.40
2019-02-25T07:19:56.528Z,1.40
2019-02-25T07:22:44.186Z,1.50
2019-02-25T07:25:31.979Z,1.70
2019-02-25T07:28:19.203Z,1.90
2019-02-25T07:30:59.964Z,2.00
2019-02-25T07:33:51.470Z,2.10
2019-02-25T07:36:38.988Z,2.30
2019-02-25T07:39:27.127Z,2.40
2019-02-25T07:42:15.887Z,2.60
2019-02-25T07:45:01.273Z,2.80
2019-02-25T07:48:05.282Z,2.90
2019-02-25T07:51:00.196Z,3.10
2019-02-25T07:53:52.204Z,3.20
2019-02-25T07:56:42.149Z,3.90
2019-02-25T07:59:18.242Z,5.30
2019-02-25T08:02:04.834Z,6.60
2019-02-25T08:04:56.865Z,7.50
2019-02-25T08:07:45.826Z,8.50
2019-02-25T08:10:33.040Z,9.10
2019-02-25T08:13:16.323Z,9.70
2019-02-25T08:16:17.308Z,9.90
2019-02-25T08:22:16.122Z,11.00
2019-02-25T08:24:54.964Z,11.40
2019-02-25T08:27:31.559Z,12.00
2019-02-25T08:30:29.586Z,12.60
2019-02-25T08:33:10.970Z,12.80
2019-02-25T08:36:42.523Z,12.90
2019-02-25T08:39:25.645Z,13.30
2019-02-25T08:42:01.811Z,13.40
2019-02-25T08:44:42.567Z,13.40
2019-02-25T08:47:36.240Z,13.40
2019-02-25T08:50:08.642Z,13.50
2019-02-25T08:52:38.340Z,13.70
2019-02-25T08:55:09.243Z,14.10
2019-02-25T08:57:39.004Z,14.60
2019-02-25T09:00:11.162Z,14.80
2019-02-25T09:02:40.920Z,14.60
2019-02-25T09:05:12.248Z,14.80
2019-02-25T09:07:42.879Z,15.40
2019-02-25T09:10:13.628Z,15.80
2019-02-25T09:12:43.205Z,16.00
2019-02-25T09:15:13.443Z,16.50
2019-02-25T09:17:45.036Z,16.80
2019-02-25T09:20:15.541Z,17.10
2019-02-25T09:22:45.295Z,17.50
2019-02-25T09:25:14.916Z,17.90
2019-02-25T09:31:15.239Z,18.20
2019-02-25T09:33:44.999Z,18.90
2019-02-25T09:36:14.637Z,19.00
2019-02-25T09:38:44.438Z,19.10
2019-02-25T09:41:17.039Z,18.40
2019-02-25T09:43:46.799Z,18.40
2019-02-25T09:46:16.441Z,18.00
2019-02-25T09:48:46.322Z,18.70
2019-02-25T09:51:15.988Z,19.20
2019-02-25T09:53:45.844Z,19.60
2019-02-25T09:56:15.481Z,20.00
2019-02-25T09:58:44.977Z,20.40
2019-02-25T10:01:14.762Z,20.10
2019-02-25T10:03:44.496Z,20.30
2019-02-25T10:06:14.041Z,19.70
2019-02-25T10:08:43.911Z,19.20
2019-02-25T10:11:13.517Z,20.10
2019-02-25T10:13:43.443Z,20.60
2019-02-25T10:16:13.036Z,20.90
2019-02-25T10:18:42.719Z,21.30
2019-02-25T10:21:12.454Z,21.50
2019-02-25T10:23:42.163Z,21.80
2019-02-25T10:26:11.880Z,22.00
2019-02-25T10:28:41.800Z,21.60
2019-02-25T10:31:13.046Z,21.60
2019-02-25T10:33:42.840Z,21.10
2019-02-25T10:36:12.601Z,19.90
2019-02-25T10:38:42.049Z,20.70
2019-02-25T10:41:11.858Z,21.50
2019-02-25T10:43:41.467Z,22.10
2019-02-25T10:46:13.479Z,22.60
2019-02-25T10:48:42.734Z,23.00
2019-02-25T10:51:13.695Z,22.20
2019-02-25T10:53:45.117Z,22.10
2019-02-25T10:56:21.737Z,22.50
2019-02-25T10:58:51.594Z,22.70
2019-02-25T11:01:22.345Z,23.10
2019-02-25T11:03:54.181Z,22.40
2019-02-25T11:06:25.168Z,21.70
2019-02-25T11:09:23.039Z,20.50
2019-02-25T11:11:54.736Z,21.40
2019-02-25T11:14:24.156Z,21.30
2019-02-25T11:16:54.122Z,22.00
2019-02-25T11:19:25.012Z,22.10
2019-02-25T11:21:55.529Z,22.00
2019-02-25T11:24:25.548Z,21.20
2019-02-25T11:26:56.796Z,20.40
2019-02-25T11:29:26.497Z,20.30
2019-02-25T11:31:56.097Z,20.40
2019-02-25T11:34:25.714Z,20.70
2019-02-25T11:36:57.289Z,20.60
2019-02-25T11:39:27.535Z,20.90
2019-02-25T11:41:58.438Z,20.50
2019-02-25T11:44:31.198Z,20.70
2019-02-25T11:46:59.402Z,21.70
2019-02-25T11:49:29.084Z,21.60
2019-02-25T11:51:58.801Z,20.80
2019-02-25T11:54:29.161Z,21.30
2019-02-25T11:56:58.616Z,21.20
2019-02-25T11:59:30.597Z,20.40
2019-02-25T12:01:59.878Z,20.40
2019-02-25T12:04:29.519Z,21.30
2019-02-25T12:06:59.277Z,21.40
2019-02-25T12:09:29.164Z,20.60
2019-02-25T12:11:59.021Z,20.80
2019-02-25T12:14:28.498Z,20.70
2019-02-25T12:16:58.022Z,20.40
2019-02-25T12:19:27.836Z,20.30
2019-02-25T12:21:57.481Z,19.60
2019-02-25T12:24:26.935Z,20.50
2019-02-25T12:26:56.638Z,20.30
2019-02-25T12:29:26.375Z,21.20
2019-02-25T12:31:56.045Z,20.60
2019-02-25T12:34:25.779Z,20.50
2019-02-25T12:36:55.593Z,20.50
2019-02-25T12:39:25.322Z,20.00
2019-02-25T12:41:55.563Z,19.70
2019-02-25T12:44:25.235Z,19.80
2019-02-25T12:46:54.957Z,20.10
2019-02-25T12:49:24.720Z,20.90
2019-02-25T12:51:54.353Z,21.90
2019-02-25T12:54:23.878Z,21.80
2019-02-25T12:56:53.760Z,22.00
2019-02-25T12:59:23.334Z,21.80
2019-02-25T13:01:53.194Z,20.40
2019-02-25T13:04:23.037Z,20.50
2019-02-25T13:06:52.605Z,20.70
2019-02-25T13:09:22.315Z,21.00
2019-02-25T13:11:52.025Z,20.80
2019-02-25T13:14:21.935Z,21.20
2019-02-25T13:16:51.962Z,22.00
2019-02-25T13:19:21.567Z,22.00
2019-02-25T13:21:51.477Z,22.50
2019-02-25T13:24:21.241Z,22.80
2019-02-25T13:26:51.055Z,22.30
2019-02-25T13:29:20.699Z,22.00
2019-02-25T13:31:50.157Z,22.40
2019-02-25T13:34:20.036Z,22.20
2019-02-25T13:36:51.359Z,22.40
2019-02-25T13:39:20.968Z,22.90
2019-02-25T13:41:50.755Z,22.60
2019-02-25T13:44:20.282Z,22.50
2019-02-25T13:46:50.157Z,22.60
2019-02-25T13:49:20.036Z,21.40
2019-02-25T13:51:50.277Z,21.00
2019-02-25T13:54:20.044Z,21.30
2019-02-25T13:56:49.929Z,20.90
2019-02-25T13:59:19.799Z,21.10
2019-02-25T14:01:52.806Z,21.20
2019-02-25T14:04:22.770Z,21.10
2019-02-25T14:06:52.679Z,21.30
2019-02-25T14:09:22.078Z,21.40
2019-02-25T14:11:51.790Z,21.40
2019-02-25T14:14:22.436Z,21.00
2019-02-25T14:16:52.198Z,20.60
2019-02-25T14:19:21.838Z,20.10
2019-02-25T14:21:51.721Z,20.60
2019-02-25T14:24:21.957Z,20.70
2019-02-25T14:26:51.474Z,20.60
2019-02-25T14:29:21.610Z,20.60
2019-02-25T14:31:51.236Z,20.30
2019-02-25T14:34:21.113Z,20.20
2019-02-25T14:36:52.479Z,20.20
2019-02-25T14:39:27.758Z,19.80
2019-02-25T14:41:58.871Z,19.70
2019-02-25T14:44:32.430Z,19.70
2019-02-25T14:47:02.614Z,19.80
2019-02-25T14:49:32.557Z,19.80
2019-02-25T14:52:01.797Z,19.40
2019-02-25T14:54:32.270Z,19.40
2019-02-25T14:57:03.339Z,19.60
2019-02-25T14:59:33.119Z,19.60
2019-02-25T15:02:04.016Z,19.50
2019-02-25T15:04:35.810Z,19.60
2019-02-25T15:07:06.963Z,19.60
2019-02-25T15:09:39.227Z,19.90
2019-02-25T15:12:11.680Z,20.10
2019-02-25T15:14:40.716Z,20.30
2019-02-25T15:17:12.649Z,20.40
2019-02-25T15:19:42.913Z,20.60
2019-02-25T15:22:12.818Z,20.60
2019-02-25T15:24:44.436Z,20.60
2019-02-25T15:27:14.280Z,20.80
2019-02-25T15:29:44.740Z,20.70
2019-02-25T15:32:15.538Z,20.90
2019-02-25T15:34:46.549Z,20.70
2019-02-25T15:37:16.674Z,20.60
2019-02-25T15:39:46.403Z,20.60
2019-02-25T15:42:17.241Z,20.40
2019-02-25T15:44:49.147Z,20.20
2019-02-25T15:47:18.718Z,19.80
2019-02-25T15:49:49.074Z,20.00
2019-02-25T15:52:20.879Z,20.20
2019-02-25T15:54:50.754Z,19.90
2019-02-25T15:57:20.646Z,19.90
2019-02-25T15:59:51.854Z,20.10
2019-02-25T16:02:21.562Z,20.30
2019-02-25T16:04:51.173Z,20.30
2019-02-25T16:07:23.704Z,20.20
2019-02-25T16:09:54.731Z,19.90
2019-02-25T16:12:26.857Z,19.10
2019-02-25T16:14:55.432Z,18.80
2019-02-25T16:17:25.036Z,18.40
2019-02-25T16:19:55.194Z,18.40
2019-02-25T16:22:26.146Z,18.10
2019-02-25T16:24:56.639Z,18.20
2019-02-25T16:27:27.390Z,18.00
2019-02-25T16:29:58.153Z,17.70
2019-02-25T16:32:28.799Z,17.30
2019-02-25T16:35:00.134Z,17.20
2019-02-25T16:37:31.626Z,17.20
2019-02-25T16:40:03.825Z,17.00
2019-02-25T16:42:34.687Z,17.00
2019-02-25T16:45:07.000Z,17.10
2019-02-25T16:47:37.762Z,17.00
2019-02-25T16:50:07.988Z,16.80
2019-02-25T16:52:40.623Z,16.70
2019-02-25T16:55:09.720Z,16.50
2019-02-25T16:57:41.061Z,16.40
2019-02-25T17:00:14.196Z,16.70
2019-02-25T17:02:44.864Z,16.50
2019-02-25T17:05:14.633Z,16.70
2019-02-25T17:07:45.098Z,16.20
2019-02-25T17:10:19.203Z,15.80
2019-02-25T17:12:50.100Z,15.60
2019-02-25T17:15:20.492Z,15.30
2019-02-25T17:17:52.512Z,15.60
2019-02-25T17:20:23.672Z,15.50
2019-02-25T17:22:54.249Z,15.40
2019-02-25T17:25:26.836Z,15.40
2019-02-25T17:27:56.039Z,15.10
2019-02-25T17:30:26.168Z,15.30
2019-02-25T17:32:56.925Z,15.30
2019-02-25T17:35:28.884Z,14.60
2019-02-25T17:38:00.400Z,14.20
2019-02-25T17:40:30.597Z,14.10
2019-02-25T17:43:00.714Z,13.60
2019-02-25T17:45:32.436Z,13.50
2019-02-25T17:48:05.440Z,13.70
2019-02-25T17:50:35.323Z,13.90
2019-02-25T17:53:07.205Z,14.40
2019-02-25T17:55:37.436Z,14.40
2019-02-25T17:58:08.831Z,13.90
2019-02-25T18:00:42.382Z,12.70
2019-02-25T18:03:12.240Z,12.00
2019-02-25T18:05:44.141Z,12.10
2019-02-25T18:08:15.368Z,12.50
2019-02-25T18:10:46.035Z,13.10
2019-02-25T18:13:17.633Z,12.70
2019-02-25T18:15:49.836Z,12.30
2019-02-25T18:18:21.840Z,12.00
2019-02-25T18:20:53.632Z,11.50
2019-02-25T18:23:24.103Z,11.10
2019-02-25T18:25:57.979Z,11.00
2019-02-25T18:28:26.903Z,11.00
2019-02-25T18:30:59.668Z,10.90
2019-02-25T18:33:29.453Z,10.50
2019-02-25T18:36:01.992Z,10.00
2019-02-25T18:38:32.401Z,9.80
2019-02-25T18:41:04.237Z,10.00
2019-02-25T18:43:34.316Z,10.20
2019-02-25T18:46:07.113Z,10.10
2019-02-25T18:48:36.836Z,9.90
2019-02-25T18:51:11.871Z,9.80
2019-02-25T18:53:39.719Z,9.60
2019-02-25T18:56:11.911Z,9.40
2019-02-25T18:58:42.231Z,9.50
2019-02-25T19:01:13.387Z,10.00
2019-02-25T19:03:44.407Z,10.00
2019-02-25T19:06:17.085Z,9.40
2019-02-25T19:08:47.335Z,9.40
2019-02-25T19:11:20.971Z,9.40
2019-02-25T19:14:03.170Z,8.90
2019-02-25T19:16:32.633Z,8.90
2019-02-25T19:19:04.013Z,8.60
2019-02-25T19:21:35.304Z,8.50
2019-02-25T19:24:07.321Z,8.60
2019-02-25T19:26:38.249Z,8.50
2019-02-25T19:29:09.606Z,8.40
2019-02-25T19:31:42.506Z,8.60
2019-02-25T19:34:15.545Z,8.40
2019-02-25T19:36:43.830Z,8.20
2019-02-25T19:39:16.838Z,8.10
2019-02-25T19:41:49.157Z,8.20
2019-02-25T19:44:21.151Z,8.60
2019-02-25T19:46:53.845Z,8.80
2019-02-25T19:49:24.578Z,8.90
2019-02-25T19:51:54.835Z,8.60
2019-02-25T19:54:25.089Z,8.20
2019-02-25T19:56:57.886Z,8.10
2019-02-25T19:59:29.141Z,8.00
2019-02-25T20:01:59.656Z,7.70
2019-02-25T20:04:33.470Z,7.80
2019-02-25T20:07:01.795Z,7.80
2019-02-25T20:09:32.635Z,7.70
2019-02-25T20:12:03.295Z,7.50
2019-02-25T20:14:33.874Z,7.20
2019-02-25T20:17:04.196Z,7.10
2019-02-25T20:19:34.630Z,7.20
2019-02-25T20:22:04.912Z,7.30
2019-02-25T20:24:39.806Z,7.30
2019-02-25T20:27:07.852Z,7.20
2019-02-25T20:29:38.721Z,7.00
2019-02-25T20:32:16.441Z,6.80
2019-02-25T20:34:49.959Z,6.60
2019-02-25T20:37:22.761Z,6.50
2019-02-25T20:39:51.235Z,6.50
2019-02-25T20:42:22.325Z,6.70
2019-02-25T20:44:55.100Z,7.10
2019-02-25T20:47:24.731Z,7.10
2019-02-25T20:49:56.066Z,6.70
2019-02-25T20:52:26.876Z,6.60
2019-02-25T20:54:57.232Z,6.70
2019-02-25T20:57:27.409Z,6.80
2019-02-25T20:59:57.942Z,6.70
2019-02-25T21:02:28.204Z,6.40
2019-02-25T21:04:58.466Z,6.20
2019-02-25T21:07:29.717Z,6.70
2019-02-25T21:10:00.989Z,6.90
2019-02-25T21:12:32.133Z,7.00
2019-02-25T21:15:02.530Z,6.60
2019-02-25T21:17:33.215Z,6.50
2019-02-25T21:20:07.079Z,6.80
2019-02-25T21:22:38.606Z,6.40
2019-02-25T21:25:10.301Z,6.00
2019-02-25T21:27:41.241Z,5.90
2019-02-25T21:30:14.480Z,6.00
2019-02-25T21:32:45.650Z,6.40
2019-02-25T21:35:17.050Z,6.50
2019-02-25T21:37:48.300Z,6.50
2019-02-25T21:40:20.038Z,6.90
2019-02-25T21:42:51.429Z,7.20
2019-02-25T21:45:24.523Z,7.20
2019-02-25T21:47:56.677Z,6.80
2019-02-25T21:50:28.431Z,6.40
2019-02-25T21:52:57.445Z,6.00
2019-02-25T21:55:28.559Z,6.20
2019-02-25T21:58:00.832Z,6.20
2019-02-25T22:00:32.902Z,6.00
2019-02-25T22:03:06.012Z,5.60
2019-02-25T22:05:35.186Z,5.40
2019-02-25T22:08:06.492Z,5.60
2019-02-25T22:10:39.344Z,5.60
2019-02-25T22:13:11.245Z,5.60
2019-02-25T22:15:42.997Z,5.60
2019-02-25T22:18:14.140Z,5.30
2019-02-25T22:20:47.059Z,5.40
2019-02-25T22:23:16.683Z,5.30
2019-02-25T22:25:47.207Z,5.30
2019-02-25T22:28:17.641Z,5.60
2019-02-25T22:30:49.630Z,5.90
2019-02-25T22:33:27.438Z,5.50
2019-02-25T22:35:51.928Z,5.10
2019-02-25T22:38:22.520Z,5.00
2019-02-25T22:40:53.722Z,5.00
2019-02-25T22:43:24.613Z,5.30
2019-02-25T22:45:58.106Z,5.60
2019-02-25T22:48:27.388Z,5.70
2019-02-25T22:50:59.690Z,5.40
2019-02-25T22:53:29.387Z,5.60
2019-02-25T22:55:59.787Z,5.30
2019-02-25T22:58:31.581Z,5.00
2019-02-25T23:01:18.190Z,4.90
2019-02-25T23:03:52.151Z,4.80
2019-02-25T23:06:23.078Z,4.90
2019-02-25T23:08:55.352Z,5.30
2019-02-25T23:11:26.111Z,5.10
2019-02-25T23:13:56.567Z,4.90
2019-02-25T23:16:26.791Z,4.90
2019-02-25T23:18:57.128Z,4.90
2019-02-25T23:21:30.805Z,5.30
2019-02-25T23:24:01.200Z,5.40
2019-02-25T23:26:31.535Z,5.20
2019-02-25T23:29:01.897Z,5.40
2019-02-25T23:31:32.336Z,5.40
2019-02-25T23:34:02.849Z,5.40
2019-02-25T23:36:33.285Z,4.90
2019-02-25T23:39:03.766Z,4.50
2019-02-25T23:41:36.257Z,4.60
2019-02-25T23:44:07.140Z,4.90
2019-02-25T23:46:40.045Z,5.10
2019-02-25T23:49:10.756Z,5.20
2019-02-25T23:51:41.689Z,5.30
2019-02-25T23:54:16.020Z,4.80
2019-02-25T23:56:49.879Z,4.50
2019-02-25T23:59:22.028Z,4.30
